sensor_id;sensor_type;location;lat;lon;timestamp;pressure;altitude;pressure_sealevel;temperature;humidity
32033;BME280;31720;52.638;9.216;2023-03-04T00:00:25;101991.03;;;4.65;100.00
32033;BME280;31720;52.638;9.216;2023-03-04T00:03:26;101991.09;;;4.60;100.00
32033;BME280;31720;52.638;9.216;2023-03-04T00:06:27;101984.13;;;4.61;100.00
32033;BME280;31720;52.638;9.216;2023-03-04T00:09:30;101990.19;;;4.61;100.00
32033;BME280;31720;52.638;9.216;2023-03-04T00:12:31;101996.22;;;4.66;100.00
32033;BME280;31720;52.638;9.216;2023-03-04T00:15:33;101993.59;;;4.69;100.00
32033;BME280;31720;52.638;9.216;2023-03-04T00:18:34;101991.88;;;4.68;100.00
32033;BME280;31720;52.638;9.216;2023-03-04T00:21:35;101985.81;;;4.66;100.00
32033;BME280;31720;52.638;9.216;2023-03-04T00:24:38;101989.28;;;4.68;100.00
32033;BME280;31720;52.638;9.216;2023-03-04T00:27:39;101989.22;;;4.71;100.00
32033;BME280;31720;52.638;9.216;2023-03-04T00:30:41;101984.00;;;4.74;100.00
32033;BME280;31720;52.638;9.216;2023-03-04T00:33:42;101987.47;;;4.75;100.00
32033;BME280;31720;52.638;9.216;2023-03-04T00:36:44;101985.75;;;4.72;100.00
32033;BME280;31720;52.638;9.216;2023-03-04T00:39:47;101989.19;;;4.77;100.00
32033;BME280;31720;52.638;9.216;2023-03-04T00:42:48;101979.63;;;4.78;100.00
32033;BME280;31720;52.638;9.216;2023-03-04T00:45:49;101977.03;;;4.78;100.00
32033;BME280;31720;52.638;9.216;2023-03-04T00:48:51;101976.16;;;4.76;100.00
32033;BME280;31720;52.638;9.216;2023-03-04T00:51:52;101975.25;;;4.83;100.00
32033;BME280;31720;52.638;9.216;2023-03-04T00:54:55;101979.59;;;4.81;100.00
32033;BME280;31720;52.638;9.216;2023-03-04T00:57:56;101976.97;;;4.84;100.00
32033;BME280;31720;52.638;9.216;2023-03-04T01:00:57;101974.44;;;4.76;100.00
32033;BME280;31720;52.638;9.216;2023-03-04T01:03:59;101979.69;;;4.73;100.00
32033;BME280;31720;52.638;9.216;2023-03-04T01:07:00;101970.09;;;4.75;100.00
32033;BME280;31720;52.638;9.216;2023-03-04T01:10:03;101965.78;;;4.74;100.00
32033;BME280;31720;52.638;9.216;2023-03-04T01:13:05;101974.47;;;4.72;100.00
32033;BME280;31720;52.638;9.216;2023-03-04T01:16:06;101969.16;;;4.81;100.00
32033;BME280;31720;52.638;9.216;2023-03-04T01:19:10;101959.63;;;4.80;100.00
32033;BME280;31720;52.638;9.216;2023-03-04T01:22:11;101953.53;;;4.81;100.00
32033;BME280;31720;52.638;9.216;2023-03-04T01:25:15;101948.38;;;4.79;100.00
32033;BME280;31720;52.638;9.216;2023-03-04T01:28:17;101951.81;;;4.80;100.00
32033;BME280;31720;52.638;9.216;2023-03-04T01:31:18;101947.50;;;4.79;100.00
32033;BME280;31720;52.638;9.216;2023-03-04T01:34:19;101944.00;;;4.80;100.00
32033;BME280;31720;52.638;9.216;2023-03-04T01:37:21;101936.22;;;4.81;100.00
32033;BME280;31720;52.638;9.216;2023-03-04T01:40:23;101931.03;;;4.78;100.00
32033;BME280;31720;52.638;9.216;2023-03-04T01:43:27;101923.13;;;4.86;100.00
32033;BME280;31720;52.638;9.216;2023-03-04T01:46:30;101925.75;;;4.83;100.00
32033;BME280;31720;52.638;9.216;2023-03-04T01:49:32;101917.09;;;4.82;100.00
32033;BME280;31720;52.638;9.216;2023-03-04T01:52:41;101922.28;;;4.84;100.00
32033;BME280;31720;52.638;9.216;2023-03-04T01:55:44;101910.94;;;4.91;100.00
32033;BME280;31720;52.638;9.216;2023-03-04T01:59:09;101907.47;;;4.88;100.00
32033;BME280;31720;52.638;9.216;2023-03-04T02:02:11;101907.47;;;4.91;100.00
32033;BME280;31720;52.638;9.216;2023-03-04T02:05:13;101905.69;;;4.93;100.00
32033;BME280;31720;52.638;9.216;2023-03-04T02:08:17;101902.22;;;4.92;100.00
32033;BME280;31720;52.638;9.216;2023-03-04T02:11:20;101900.50;;;4.90;100.00
32033;BME280;31720;52.638;9.216;2023-03-04T02:14:22;101898.72;;;4.93;100.00
32033;BME280;31720;52.638;9.216;2023-03-04T02:17:24;101897.88;;;4.93;100.00
32033;BME280;31720;52.638;9.216;2023-03-04T02:20:37;101895.28;;;4.91;100.00
32033;BME280;31720;52.638;9.216;2023-03-04T02:23:45;101897.00;;;4.92;100.00
32033;BME280;31720;52.638;9.216;2023-03-04T02:26:51;101888.28;;;4.95;100.00
32033;BME280;31720;52.638;9.216;2023-03-04T02:29:52;101883.03;;;4.98;100.00
32033;BME280;31720;52.638;9.216;2023-03-04T02:32:53;101877.06;;;4.91;100.00
32033;BME280;31720;52.638;9.216;2023-03-04T02:35:55;101882.22;;;4.96;100.00
32033;BME280;31720;52.638;9.216;2023-03-04T02:39:02;101881.34;;;4.94;100.00
32033;BME280;31720;52.638;9.216;2023-03-04T02:42:06;101885.66;;;4.98;100.00
32033;BME280;31720;52.638;9.216;2023-03-04T02:45:33;101878.69;;;5.00;100.00
32033;BME280;31720;52.638;9.216;2023-03-04T02:48:35;101871.75;;;4.99;100.00
32033;BME280;31720;52.638;9.216;2023-03-04T02:51:36;101869.16;;;4.97;100.00
32033;BME280;31720;52.638;9.216;2023-03-04T02:54:38;101873.50;;;5.00;100.00
32033;BME280;31720;52.638;9.216;2023-03-04T02:57:41;101866.59;;;4.94;100.00
32033;BME280;31720;52.638;9.216;2023-03-04T03:00:43;101870.06;;;4.96;100.00
32033;BME280;31720;52.638;9.216;2023-03-04T03:03:44;101876.13;;;4.97;100.00
32033;BME280;31720;52.638;9.216;2023-03-04T03:06:46;101870.84;;;5.01;100.00
32033;BME280;31720;52.638;9.216;2023-03-04T03:09:47;101870.00;;;5.01;100.00
32033;BME280;31720;52.638;9.216;2023-03-04T03:12:50;101866.47;;;5.05;100.00
32033;BME280;31720;52.638;9.216;2023-03-04T03:15:51;101868.22;;;5.03;100.00
32033;BME280;31720;52.638;9.216;2023-03-04T03:18:52;101864.78;;;5.01;100.00
32033;BME280;31720;52.638;9.216;2023-03-04T03:21:54;101863.06;;;4.98;100.00
32033;BME280;31720;52.638;9.216;2023-03-04T03:24:55;101864.00;;;4.96;100.00
32033;BME280;31720;52.638;9.216;2023-03-04T03:27:58;101868.31;;;4.97;100.00
32033;BME280;31720;52.638;9.216;2023-03-04T03:30:59;101868.38;;;4.89;100.00
32033;BME280;31720;52.638;9.216;2023-03-04T03:34:00;101869.31;;;4.85;100.00
32033;BME280;31720;52.638;9.216;2023-03-04T03:37:02;101864.09;;;4.85;100.00
32033;BME280;31720;52.638;9.216;2023-03-04T03:40:04;101865.88;;;4.83;100.00
32033;BME280;31720;52.638;9.216;2023-03-04T03:43:07;101865.94;;;4.75;100.00
32033;BME280;31720;52.638;9.216;2023-03-04T03:46:08;101852.97;;;4.71;100.00
32033;BME280;31720;52.638;9.216;2023-03-04T03:49:09;101853.00;;;4.69;100.00
32033;BME280;31720;52.638;9.216;2023-03-04T03:52:11;101853.03;;;4.66;100.00
32033;BME280;31720;52.638;9.216;2023-03-04T03:55:12;101845.28;;;4.60;100.00
32033;BME280;31720;52.638;9.216;2023-03-04T03:58:15;101842.69;;;4.58;100.00
32033;BME280;31720;52.638;9.216;2023-03-04T04:01:16;101843.47;;;4.68;100.00
32033;BME280;31720;52.638;9.216;2023-03-04T04:04:17;101839.97;;;4.68;100.00
32033;BME280;31720;52.638;9.216;2023-03-04T04:07:19;101841.75;;;4.66;100.00
32033;BME280;31720;52.638;9.216;2023-03-04T04:10:20;101839.16;;;4.66;100.00
32033;BME280;31720;52.638;9.216;2023-03-04T04:13:23;101836.50;;;4.70;100.00
32033;BME280;31720;52.638;9.216;2023-03-04T04:16:24;101838.28;;;4.65;100.00
32033;BME280;31720;52.638;9.216;2023-03-04T04:19:25;101838.28;;;4.68;100.00
32033;BME280;31720;52.638;9.216;2023-03-04T04:22:27;101833.06;;;4.68;100.00
32033;BME280;31720;52.638;9.216;2023-03-04T04:25:28;101829.59;;;4.66;100.00
32033;BME280;31720;52.638;9.216;2023-03-04T04:28:31;101826.97;;;4.68;100.00
32033;BME280;31720;52.638;9.216;2023-03-04T04:31:33;101820.91;;;4.69;100.00
32033;BME280;31720;52.638;9.216;2023-03-04T04:34:35;101817.53;;;4.59;100.00
32033;BME280;31720;52.638;9.216;2023-03-04T04:37:36;101820.09;;;4.64;100.00
32033;BME280;31720;52.638;9.216;2023-03-04T04:40:37;101814.03;;;4.62;100.00
32033;BME280;31720;52.638;9.216;2023-03-04T04:43:40;101813.19;;;4.60;100.00
32033;BME280;31720;52.638;9.216;2023-03-04T04:46:41;101811.44;;;4.58;100.00
32033;BME280;31720;52.638;9.216;2023-03-04T04:49:43;101804.59;;;4.54;100.00
32033;BME280;31720;52.638;9.216;2023-03-04T04:52:45;101802.88;;;4.49;100.00
32033;BME280;31720;52.638;9.216;2023-03-04T04:55:46;101812.38;;;4.53;100.00
32033;BME280;31720;52.638;9.216;2023-03-04T04:58:48;101814.09;;;4.54;100.00
32033;BME280;31720;52.638;9.216;2023-03-04T05:01:50;101808.97;;;4.51;100.00
32033;BME280;31720;52.638;9.216;2023-03-04T05:04:51;101818.50;;;4.50;100.00
32033;BME280;31720;52.638;9.216;2023-03-04T05:07:53;101811.50;;;4.54;100.00
32033;BME280;31720;52.638;9.216;2023-03-04T05:10:54;101810.75;;;4.46;100.00
32033;BME280;31720;52.638;9.216;2023-03-04T05:13:57;101803.00;;;4.41;100.00
32033;BME280;31720;52.638;9.216;2023-03-04T05:16:58;101798.69;;;4.37;100.00
32033;BME280;31720;52.638;9.216;2023-03-04T05:19:59;101799.53;;;4.39;100.00
32033;BME280;31720;52.638;9.216;2023-03-04T05:23:01;101794.38;;;4.35;100.00
32033;BME280;31720;52.638;9.216;2023-03-04T05:26:03;101802.19;;;4.35;100.00
32033;BME280;31720;52.638;9.216;2023-03-04T05:29:06;101789.22;;;4.30;100.00
32033;BME280;31720;52.638;9.216;2023-03-04T05:32:07;101793.59;;;4.28;100.00
32033;BME280;31720;52.638;9.216;2023-03-04T05:35:09;101792.72;;;4.26;100.00
32033;BME280;31720;52.638;9.216;2023-03-04T05:38:12;101798.84;;;4.23;100.00
32033;BME280;31720;52.638;9.216;2023-03-04T05:41:15;101793.63;;;4.22;100.00
32033;BME280;31720;52.638;9.216;2023-03-04T05:44:19;101803.19;;;4.21;100.00
32033;BME280;31720;52.638;9.216;2023-03-04T05:47:20;101799.78;;;4.15;100.00
32033;BME280;31720;52.638;9.216;2023-03-04T05:50:23;101796.28;;;4.17;100.00
32033;BME280;31720;52.638;9.216;2023-03-04T05:53:25;101805.00;;;4.13;100.00
32033;BME280;31720;52.638;9.216;2023-03-04T05:56:26;101797.19;;;4.15;100.00
32033;BME280;31720;52.638;9.216;2023-03-04T05:59:30;101795.38;;;4.21;100.00
32033;BME280;31720;52.638;9.216;2023-03-04T06:02:31;101789.28;;;4.22;100.00
32033;BME280;31720;52.638;9.216;2023-03-04T06:05:33;101789.38;;;4.16;100.00
32033;BME280;31720;52.638;9.216;2023-03-04T06:08:34;101785.91;;;4.16;100.00
32033;BME280;31720;52.638;9.216;2023-03-04T06:11:36;101793.72;;;4.14;100.00
32033;BME280;31720;52.638;9.216;2023-03-04T06:14:38;101798.94;;;4.13;100.00
32033;BME280;31720;52.638;9.216;2023-03-04T06:17:41;101797.16;;;4.19;100.00
32033;BME280;31720;52.638;9.216;2023-03-04T06:20:42;101800.66;;;4.15;100.00
32033;BME280;31720;52.638;9.216;2023-03-04T06:23:44;101800.59;;;4.20;100.00
32033;BME280;31720;52.638;9.216;2023-03-04T06:26:46;101798.97;;;4.10;100.00
32033;BME280;31720;52.638;9.216;2023-03-04T06:29:49;101792.91;;;4.09;100.00
32033;BME280;31720;52.638;9.216;2023-03-04T06:32:50;101794.66;;;4.07;100.00
32033;BME280;31720;52.638;9.216;2023-03-04T06:35:53;101802.50;;;4.02;100.00
32033;BME280;31720;52.638;9.216;2023-03-04T06:38:55;101796.44;;;4.02;100.00
32033;BME280;31720;52.638;9.216;2023-03-04T06:41:56;101805.97;;;4.04;100.00
32033;BME280;31720;52.638;9.216;2023-03-04T06:44:59;101797.31;;;4.01;100.00
32033;BME280;31720;52.638;9.216;2023-03-04T06:48:01;101799.06;;;4.00;100.00
32033;BME280;31720;52.638;9.216;2023-03-04T06:51:06;101805.06;;;4.04;100.00
32033;BME280;31720;52.638;9.216;2023-03-04T06:54:08;101798.13;;;4.09;100.00
32033;BME280;31720;52.638;9.216;2023-03-04T06:57:09;101804.94;;;4.18;100.00
32033;BME280;31720;52.638;9.216;2023-03-04T07:00:13;101800.56;;;4.21;100.00
32033;BME280;31720;52.638;9.216;2023-03-04T07:03:15;101807.47;;;4.25;100.00
32033;BME280;31720;52.638;9.216;2023-03-04T07:06:18;101799.66;;;4.28;100.00
32033;BME280;31720;52.638;9.216;2023-03-04T07:09:20;101805.72;;;4.29;100.00
32033;BME280;31720;52.638;9.216;2023-03-04T07:12:21;101799.63;;;4.30;100.00
32033;BME280;31720;52.638;9.216;2023-03-04T07:15:24;101799.59;;;4.36;100.00
32033;BME280;31720;52.638;9.216;2023-03-04T07:18:26;101790.09;;;4.32;100.00
32033;BME280;31720;52.638;9.216;2023-03-04T07:21:27;101792.63;;;4.35;100.00
32033;BME280;31720;52.638;9.216;2023-03-04T07:24:28;101803.00;;;4.40;100.00
32033;BME280;31720;52.638;9.216;2023-03-04T07:27:30;101797.03;;;4.31;100.00
32033;BME280;31720;52.638;9.216;2023-03-04T07:30:32;101797.84;;;4.35;100.00
32033;BME280;31720;52.638;9.216;2023-03-04T07:33:34;101806.56;;;4.29;100.00
32033;BME280;31720;52.638;9.216;2023-03-04T07:36:35;101808.28;;;4.30;100.00
32033;BME280;31720;52.638;9.216;2023-03-04T07:39:37;101805.63;;;4.35;100.00
32033;BME280;31720;52.638;9.216;2023-03-04T07:42:38;101813.44;;;4.37;100.00
32033;BME280;31720;52.638;9.216;2023-03-04T07:45:41;101811.75;;;4.32;100.00
32033;BME280;31720;52.638;9.216;2023-03-04T07:48:42;101805.63;;;4.38;100.00
32033;BME280;31720;52.638;9.216;2023-03-04T07:51:44;101810.81;;;4.38;100.00
32033;BME280;31720;52.638;9.216;2023-03-04T07:54:45;101816.00;;;4.41;100.00
32033;BME280;31720;52.638;9.216;2023-03-04T07:57:46;101818.59;;;4.41;100.00
32033;BME280;31720;52.638;9.216;2023-03-04T08:00:49;101816.00;;;4.41;100.00
32033;BME280;31720;52.638;9.216;2023-03-04T08:03:51;101810.78;;;4.43;100.00
32033;BME280;31720;52.638;9.216;2023-03-04T08:06:52;101815.09;;;4.45;100.00
32033;BME280;31720;52.638;9.216;2023-03-04T08:09:53;101814.22;;;4.45;100.00
32033;BME280;31720;52.638;9.216;2023-03-04T08:12:55;101822.03;;;4.43;100.00
32033;BME280;31720;52.638;9.216;2023-03-04T08:15:58;101813.34;;;4.44;100.00
32033;BME280;31720;52.638;9.216;2023-03-04T08:19:01;101822.91;;;4.45;100.00
32033;BME280;31720;52.638;9.216;2023-03-04T08:22:03;101811.50;;;4.54;100.00
32033;BME280;31720;52.638;9.216;2023-03-04T08:25:04;101812.25;;;4.65;100.00
32033;BME280;31720;52.638;9.216;2023-03-04T08:28:06;101813.00;;;4.75;100.00
32033;BME280;31720;52.638;9.216;2023-03-04T08:31:09;101808.59;;;4.81;100.00
32033;BME280;31720;52.638;9.216;2023-03-04T08:34:11;101811.19;;;4.83;100.00
32033;BME280;31720;52.638;9.216;2023-03-04T08:37:13;101814.56;;;4.90;100.00
32033;BME280;31720;52.638;9.216;2023-03-04T08:40:15;101804.91;;;4.98;100.00
32033;BME280;31720;52.638;9.216;2023-03-04T08:43:16;101806.56;;;5.03;100.00
32033;BME280;31720;52.638;9.216;2023-03-04T08:46:19;101803.94;;;5.03;100.00
32033;BME280;31720;52.638;9.216;2023-03-04T08:49:20;101805.63;;;5.09;100.00
32033;BME280;31720;52.638;9.216;2023-03-04T08:52:22;101811.59;;;5.16;100.00
32033;BME280;31720;52.638;9.216;2023-03-04T08:55:23;101813.28;;;5.20;100.00
32033;BME280;31720;52.638;9.216;2023-03-04T08:58:24;101808.94;;;5.20;100.00
32033;BME280;31720;52.638;9.216;2023-03-04T09:01:27;101805.50;;;5.18;100.00
32033;BME280;31720;52.638;9.216;2023-03-04T09:04:28;101813.31;;;5.18;100.00
32033;BME280;31720;52.638;9.216;2023-03-04T09:07:30;101808.13;;;5.17;100.00
32033;BME280;31720;52.638;9.216;2023-03-04T09:10:31;101816.84;;;5.14;100.00
32033;BME280;31720;52.638;9.216;2023-03-04T09:13:33;101815.13;;;5.12;100.00
32033;BME280;31720;52.638;9.216;2023-03-04T09:16:36;101827.34;;;5.09;100.00
32033;BME280;31720;52.638;9.216;2023-03-04T09:19:37;101836.84;;;5.12;100.00
32033;BME280;31720;52.638;9.216;2023-03-04T09:22:40;101825.56;;;5.12;100.00
32033;BME280;31720;52.638;9.216;2023-03-04T09:25:42;101830.75;;;5.15;100.00
32033;BME280;31720;52.638;9.216;2023-03-04T09:28:43;101824.56;;;5.20;100.00
32033;BME280;31720;52.638;9.216;2023-03-04T09:31:46;101827.25;;;5.16;100.00
32033;BME280;31720;52.638;9.216;2023-03-04T09:34:48;101837.69;;;5.14;100.00
32033;BME280;31720;52.638;9.216;2023-03-04T09:37:49;101835.94;;;5.15;100.00
32033;BME280;31720;52.638;9.216;2023-03-04T09:40:51;101835.88;;;5.19;100.00
32033;BME280;31720;52.638;9.216;2023-03-04T09:43:54;101843.59;;;5.25;100.00
32033;BME280;31720;52.638;9.216;2023-03-04T09:46:59;101839.13;;;5.35;100.00
32033;BME280;31720;52.638;9.216;2023-03-04T09:50:03;101845.13;;;5.42;100.00
32033;BME280;31720;52.638;9.216;2023-03-04T09:53:17;101843.31;;;5.47;100.00
32033;BME280;31720;52.638;9.216;2023-03-04T09:56:21;101837.19;;;5.49;100.00
32033;BME280;31720;52.638;9.216;2023-03-04T09:59:24;101834.47;;;5.57;100.00
32033;BME280;31720;52.638;9.216;2023-03-04T10:02:42;101851.94;;;5.52;100.00
32033;BME280;31720;52.638;9.216;2023-03-04T10:05:50;101845.81;;;5.54;100.00
32033;BME280;31720;52.638;9.216;2023-03-04T10:08:56;101849.13;;;5.66;100.00
32033;BME280;31720;52.638;9.216;2023-03-04T10:12:01;101845.53;;;5.73;100.00
32033;BME280;31720;52.638;9.216;2023-03-04T10:15:04;101834.41;;;5.62;100.00
32033;BME280;31720;52.638;9.216;2023-03-04T10:18:13;101832.72;;;5.57;100.00
32033;BME280;31720;52.638;9.216;2023-03-04T10:21:22;101823.94;;;5.65;100.00
32033;BME280;31720;52.638;9.216;2023-03-04T10:24:27;101838.69;;;5.66;100.00
32033;BME280;31720;52.638;9.216;2023-03-04T10:27:30;101836.28;;;5.52;100.00
32033;BME280;31720;52.638;9.216;2023-03-04T10:30:39;101851.44;;;5.25;100.00
32033;BME280;31720;52.638;9.216;2023-03-04T10:33:46;101837.72;;;5.11;100.00
32033;BME280;31720;52.638;9.216;2023-03-04T10:36:53;101840.41;;;5.06;100.00
32033;BME280;31720;52.638;9.216;2023-03-04T10:39:59;101835.97;;;5.12;100.00
32033;BME280;31720;52.638;9.216;2023-03-04T10:43:01;101846.16;;;5.30;100.00
32033;BME280;31720;52.638;9.216;2023-03-04T10:46:09;101834.56;;;5.51;100.00
32033;BME280;31720;52.638;9.216;2023-03-04T10:49:13;101822.19;;;5.65;100.00
32033;BME280;31720;52.638;9.216;2023-03-04T10:52:25;101817.72;;;5.73;100.00
32033;BME280;31720;52.638;9.216;2023-03-04T10:55:28;101828.00;;;5.81;100.00
32033;BME280;31720;52.638;9.216;2023-03-04T10:58:30;101818.31;;;5.91;100.00
32033;BME280;31720;52.638;9.216;2023-03-04T11:01:32;101813.81;;;5.99;100.00
32033;BME280;31720;52.638;9.216;2023-03-04T11:04:34;101808.72;;;5.93;100.00
32033;BME280;31720;52.638;9.216;2023-03-04T11:07:39;101822.06;;;5.73;100.00
32033;BME280;31720;52.638;9.216;2023-03-04T11:10:41;101817.91;;;5.61;100.00
32033;BME280;31720;52.638;9.216;2023-03-04T11:13:49;101806.59;;;5.60;100.00
32033;BME280;31720;52.638;9.216;2023-03-04T11:16:54;101813.50;;;5.63;100.00
32033;BME280;31720;52.638;9.216;2023-03-04T11:20:04;101809.31;;;5.54;100.00
32033;BME280;31720;52.638;9.216;2023-03-04T11:23:13;101806.66;;;5.57;100.00
32033;BME280;31720;52.638;9.216;2023-03-04T11:26:18;101803.00;;;5.68;100.00
32033;BME280;31720;52.638;9.216;2023-03-04T11:29:24;101809.00;;;5.74;100.00
32033;BME280;31720;52.638;9.216;2023-03-04T11:32:28;101809.09;;;5.68;100.00
32033;BME280;31720;52.638;9.216;2023-03-04T11:35:37;101807.31;;;5.70;100.00
32033;BME280;31720;52.638;9.216;2023-03-04T11:38:45;101791.28;;;5.96;100.00
32033;BME280;31720;52.638;9.216;2023-03-04T11:41:51;101797.84;;;6.17;100.00
32033;BME280;31720;52.638;9.216;2023-03-04T11:44:55;101794.78;;;6.40;100.00
32033;BME280;31720;52.638;9.216;2023-03-04T11:48:03;101804.28;;;5.98;100.00
32033;BME280;31720;52.638;9.216;2023-03-04T11:51:13;101808.34;;;5.60;100.00
32033;BME280;31720;52.638;9.216;2023-03-04T11:54:25;101789.34;;;5.52;100.00
32033;BME280;31720;52.638;9.216;2023-03-04T11:57:35;101792.69;;;5.62;100.00
32033;BME280;31720;52.638;9.216;2023-03-04T12:00:39;101783.41;;;5.98;100.00
32033;BME280;31720;52.638;9.216;2023-03-04T12:04:02;101773.50;;;6.18;100.00
32033;BME280;31720;52.638;9.216;2023-03-04T12:07:18;101778.16;;;5.99;100.00
32033;BME280;31720;52.638;9.216;2023-03-04T12:10:26;101792.44;;;5.75;100.00
32033;BME280;31720;52.638;9.216;2023-03-04T12:13:52;101781.72;;;5.41;100.00
32033;BME280;31720;52.638;9.216;2023-03-04T12:17:16;101775.72;;;5.36;100.00
32033;BME280;31720;52.638;9.216;2023-03-04T12:20:34;101771.19;;;5.47;100.00
32033;BME280;31720;52.638;9.216;2023-03-04T12:24:00;101766.53;;;5.66;100.00
32033;BME280;31720;52.638;9.216;2023-03-04T12:27:17;101751.19;;;6.00;100.00
32033;BME280;31720;52.638;9.216;2023-03-04T12:30:33;101760.09;;;6.35;100.00
32033;BME280;31720;52.638;9.216;2023-03-04T12:33:43;101762.66;;;6.38;100.00
32033;BME280;31720;52.638;9.216;2023-03-04T12:36:52;101753.34;;;6.25;100.00
32033;BME280;31720;52.638;9.216;2023-03-04T12:40:15;101751.75;;;6.18;100.00
32033;BME280;31720;52.638;9.216;2023-03-04T12:43:29;101753.28;;;6.28;100.00
32033;BME280;31720;52.638;9.216;2023-03-04T12:46:39;101750.72;;;6.25;100.00
32033;BME280;31720;52.638;9.216;2023-03-04T12:50:02;101751.63;;;6.24;100.00
32033;BME280;31720;52.638;9.216;2023-03-04T12:53:15;101742.16;;;6.18;100.00
32033;BME280;31720;52.638;9.216;2023-03-04T12:56:25;101746.34;;;6.27;100.00
32033;BME280;31720;52.638;9.216;2023-03-04T12:59:32;101731.50;;;6.29;100.00
32033;BME280;31720;52.638;9.216;2023-03-04T13:02:45;101737.69;;;6.25;100.00
32033;BME280;31720;52.638;9.216;2023-03-04T13:06:04;101728.25;;;6.18;100.00
32033;BME280;31720;52.638;9.216;2023-03-04T13:09:16;101732.59;;;6.19;100.00
32033;BME280;31720;52.638;9.216;2023-03-04T13:12:23;101731.09;;;6.05;100.00
32033;BME280;31720;52.638;9.216;2023-03-04T13:15:30;101724.06;;;6.09;100.00
32033;BME280;31720;52.638;9.216;2023-03-04T13:18:33;101725.66;;;6.16;100.00
32033;BME280;31720;52.638;9.216;2023-03-04T13:21:43;101745.56;;;6.22;100.00
32033;BME280;31720;52.638;9.216;2023-03-04T13:24:47;101722.06;;;6.22;100.00
32033;BME280;31720;52.638;9.216;2023-03-04T13:28:11;101724.94;;;6.09;100.00
32033;BME280;31720;52.638;9.216;2023-03-04T13:31:20;101717.97;;;6.10;100.00
32033;BME280;31720;52.638;9.216;2023-03-04T13:34:42;101731.78;;;6.15;100.00
32033;BME280;31720;52.638;9.216;2023-03-04T13:37:55;101734.81;;;5.89;100.00
32033;BME280;31720;52.638;9.216;2023-03-04T13:41:09;101750.13;;;5.58;100.00
32033;BME280;31720;52.638;9.216;2023-03-04T13:44:32;101749.16;;;5.11;100.00
32033;BME280;31720;52.638;9.216;2023-03-04T13:47:43;101750.78;;;5.18;100.00
32033;BME280;31720;52.638;9.216;2023-03-04T13:50:47;101739.44;;;5.22;100.00
32033;BME280;31720;52.638;9.216;2023-03-04T13:53:50;101735.94;;;5.22;100.00
32033;BME280;31720;52.638;9.216;2023-03-04T13:57:15;101725.44;;;5.26;100.00
32033;BME280;31720;52.638;9.216;2023-03-04T14:00:19;101735.06;;;5.24;100.00
32033;BME280;31720;52.638;9.216;2023-03-04T14:03:23;101736.59;;;5.38;100.00
32033;BME280;31720;52.638;9.216;2023-03-04T14:06:25;101743.41;;;5.45;100.00
32033;BME280;31720;52.638;9.216;2023-03-04T14:09:29;101729.44;;;5.49;100.00
32033;BME280;31720;52.638;9.216;2023-03-04T14:12:32;101724.06;;;5.58;100.00
32033;BME280;31720;52.638;9.216;2023-03-04T14:15:36;101729.16;;;5.66;100.00
32033;BME280;31720;52.638;9.216;2023-03-04T14:18:37;101733.44;;;5.70;100.00
32033;BME280;31720;52.638;9.216;2023-03-04T14:21:43;101730.63;;;5.80;100.00
32033;BME280;31720;52.638;9.216;2023-03-04T14:24:54;101726.50;;;5.67;100.00
32033;BME280;31720;52.638;9.216;2023-03-04T14:28:03;101729.03;;;5.72;100.00
32033;BME280;31720;52.638;9.216;2023-03-04T14:31:15;101741.31;;;5.68;100.00
32033;BME280;31720;52.638;9.216;2023-03-04T14:34:23;101752.75;;;5.58;100.00
32033;BME280;31720;52.638;9.216;2023-03-04T14:37:30;101749.19;;;5.09;100.00
32033;BME280;31720;52.638;9.216;2023-03-04T14:40:39;101755.63;;;4.81;100.00
32033;BME280;31720;52.638;9.216;2023-03-04T14:43:47;101748.03;;;4.66;100.00
32033;BME280;31720;52.638;9.216;2023-03-04T14:46:55;101748.88;;;4.66;100.00
32033;BME280;31720;52.638;9.216;2023-03-04T14:49:58;101728.03;;;4.68;100.00
32033;BME280;31720;52.638;9.216;2023-03-04T14:53:12;101733.28;;;4.65;100.00
32033;BME280;31720;52.638;9.216;2023-03-04T14:56:14;101721.88;;;4.75;100.00
32033;BME280;31720;52.638;9.216;2023-03-04T14:59:15;101725.25;;;4.83;100.00
32033;BME280;31720;52.638;9.216;2023-03-04T15:02:23;101721.72;;;4.87;100.00
32033;BME280;31720;52.638;9.216;2023-03-04T15:05:31;101711.16;;;4.95;100.00
32033;BME280;31720;52.638;9.216;2023-03-04T15:08:34;101711.22;;;4.92;100.00
32033;BME280;31720;52.638;9.216;2023-03-04T15:11:44;101726.84;;;4.90;100.00
32033;BME280;31720;52.638;9.216;2023-03-04T15:14:47;101717.22;;;4.97;100.00
32033;BME280;31720;52.638;9.216;2023-03-04T15:17:57;101719.00;;;4.93;100.00
32033;BME280;31720;52.638;9.216;2023-03-04T15:21:00;101706.91;;;4.91;100.00
32033;BME280;31720;52.638;9.216;2023-03-04T15:24:02;101710.28;;;4.97;100.00
32033;BME280;31720;52.638;9.216;2023-03-04T15:27:04;101708.50;;;5.01;100.00
32033;BME280;31720;52.638;9.216;2023-03-04T15:30:15;101715.38;;;5.03;100.00
32033;BME280;31720;52.638;9.216;2023-03-04T15:33:18;101715.34;;;5.06;100.00
32033;BME280;31720;52.638;9.216;2023-03-04T15:36:21;101721.53;;;4.98;100.00
32033;BME280;31720;52.638;9.216;2023-03-04T15:39:23;101724.44;;;4.76;100.00
32033;BME280;31720;52.638;9.216;2023-03-04T15:42:26;101718.44;;;4.73;100.00
32033;BME280;31720;52.638;9.216;2023-03-04T15:45:29;101718.34;;;4.79;100.00
32033;BME280;31720;52.638;9.216;2023-03-04T15:48:32;101718.34;;;4.79;100.00
32033;BME280;31720;52.638;9.216;2023-03-04T15:51:34;101722.66;;;4.81;100.00
32033;BME280;31720;52.638;9.216;2023-03-04T15:54:36;101714.03;;;4.78;100.00
32033;BME280;31720;52.638;9.216;2023-03-04T15:57:37;101718.44;;;4.73;100.00
32033;BME280;31720;52.638;9.216;2023-03-04T16:00:38;101714.97;;;4.71;100.00
32033;BME280;31720;52.638;9.216;2023-03-04T16:03:41;101728.09;;;4.65;100.00